Terminal Aerodrome Forecast
Issued by NWS

Home | Current Version | Previous Version | Text Only | Print | Product List | Glossary On
Versions: 1 2 3 4 5 6 7 8 9 10 11 12 13 14 15 16 17 18 19 20 21 22 23 24 25 26 27 28 29 30 31 32 33 34 35 36 37 38
000
FTUS45 KBOU 021440 AAA
TAFBJC
TAF AMD
KBJC 021440Z 0215/0312 VRB05KT P6SM FEW150 BKN180
     FM021800 08006KT P6SM FEW090 BKN150
     FM022100 08007KT P6SM VCSH SCT080 BKN120
      TEMPO 0222/0301 07015G25KT -SHRA BKN080
     FM030200 17012KT P6SM SCT080 BKN120
     FM030500 23008KT P6SM FEW090 SCT140 BKN200=

USA.gov is the U.S. government's official web portal to all federal, state and local government web resources and services.